BWI weather

Baltimore/Washington International Thurgood Marshall Airport
Baltimore, Maryland, United States

Public forecast

Using degrees Fahrenheit for public forecast. Weather courtesy of forecast.io.

Current aviation weather report (METAR) for Baltimore/Washington International Thurgood Marshall Airport

Retrieved 2019/10/17 03:54 UTC (39 minutes ago):

KBWI 170354Z 28018G26KT 10SM FEW045 11/04 A2953 RMK AO2 PK WND 26030/0259 SLP999 T01110039

Aviation forecast (TAF) for Baltimore/Washington International Thurgood Marshall Airport

Retrieved 2019-10-17 00:46 UTC (4 hours ago):

TAF KBWI 162344Z 1700/1806 30016G32KT P6SM FEW040 SCT250 FM171800 28019G40KT P6SM SCT050 BKN060 FM180200 29014G29KT P6SM FEW035 SCT150